sensor_id;sensor_type;location;lat;lon;timestamp;temperature;humidity
75621;DHT22;64574;48.506;-2.750;2022-12-16T00:01:15;3.70;68.70
75621;DHT22;64574;48.506;-2.750;2022-12-16T00:03:41;3.70;68.40
75621;DHT22;64574;48.506;-2.750;2022-12-16T00:06:08;3.70;67.60
75621;DHT22;64574;48.506;-2.750;2022-12-16T00:08:38;3.70;67.50
75621;DHT22;64574;48.506;-2.750;2022-12-16T00:11:04;3.70;67.60
75621;DHT22;64574;48.506;-2.750;2022-12-16T00:13:31;3.70;67.40
75621;DHT22;64574;48.506;-2.750;2022-12-16T00:15:58;3.70;67.10
75621;DHT22;64574;48.506;-2.750;2022-12-16T00:18:24;3.60;67.20
75621;DHT22;64574;48.506;-2.750;2022-12-16T00:20:54;3.50;67.30
75621;DHT22;64574;48.506;-2.750;2022-12-16T00:23:20;3.50;67.30
75621;DHT22;64574;48.506;-2.750;2022-12-16T00:25:46;3.50;67.10
75621;DHT22;64574;48.506;-2.750;2022-12-16T00:28:13;3.50;67.20
75621;DHT22;64574;48.506;-2.750;2022-12-16T00:30:40;3.30;67.40
75621;DHT22;64574;48.506;-2.750;2022-12-16T00:33:06;3.30;67.30
75621;DHT22;64574;48.506;-2.750;2022-12-16T00:35:31;3.30;67.10
75621;DHT22;64574;48.506;-2.750;2022-12-16T00:37:57;3.30;67.00
75621;DHT22;64574;48.506;-2.750;2022-12-16T00:40:23;3.30;67.00
75621;DHT22;64574;48.506;-2.750;2022-12-16T00:42:49;3.40;66.40
75621;DHT22;64574;48.506;-2.750;2022-12-16T00:45:15;3.30;66.40
75621;DHT22;64574;48.506;-2.750;2022-12-16T00:47:40;3.40;66.00
75621;DHT22;64574;48.506;-2.750;2022-12-16T00:50:07;3.50;65.80
75621;DHT22;64574;48.506;-2.750;2022-12-16T00:52:33;3.60;65.60
75621;DHT22;64574;48.506;-2.750;2022-12-16T00:54:58;3.70;64.50
75621;DHT22;64574;48.506;-2.750;2022-12-16T00:57:24;3.90;64.10
75621;DHT22;64574;48.506;-2.750;2022-12-16T00:59:50;3.70;63.60
75621;DHT22;64574;48.506;-2.750;2022-12-16T01:02:16;3.70;63.50
75621;DHT22;64574;48.506;-2.750;2022-12-16T01:04:41;3.90;63.50
75621;DHT22;64574;48.506;-2.750;2022-12-16T01:07:07;3.90;63.50
75621;DHT22;64574;48.506;-2.750;2022-12-16T01:09:33;3.90;63.80
75621;DHT22;64574;48.506;-2.750;2022-12-16T01:11:58;3.90;63.80
75621;DHT22;64574;48.506;-2.750;2022-12-16T01:14:24;4.00;63.70
75621;DHT22;64574;48.506;-2.750;2022-12-16T01:16:50;4.00;63.50
75621;DHT22;64574;48.506;-2.750;2022-12-16T01:19:15;4.10;63.40
75621;DHT22;64574;48.506;-2.750;2022-12-16T01:21:41;4.10;62.60
75621;DHT22;64574;48.506;-2.750;2022-12-16T01:24:08;4.20;61.90
75621;DHT22;64574;48.506;-2.750;2022-12-16T01:26:34;4.20;61.20
75621;DHT22;64574;48.506;-2.750;2022-12-16T01:29:00;4.30;60.80
75621;DHT22;64574;48.506;-2.750;2022-12-16T01:31:25;4.30;61.20
75621;DHT22;64574;48.506;-2.750;2022-12-16T01:33:51;4.30;61.60
75621;DHT22;64574;48.506;-2.750;2022-12-16T01:36:16;4.30;61.80
75621;DHT22;64574;48.506;-2.750;2022-12-16T01:38:43;4.30;61.60
75621;DHT22;64574;48.506;-2.750;2022-12-16T01:41:10;4.20;61.90
75621;DHT22;64574;48.506;-2.750;2022-12-16T01:43:37;4.30;61.90
75621;DHT22;64574;48.506;-2.750;2022-12-16T01:51:29;4.40;62.20
75621;DHT22;64574;48.506;-2.750;2022-12-16T01:53:59;4.40;61.90
75621;DHT22;64574;48.506;-2.750;2022-12-16T01:56:30;4.50;62.30
75621;DHT22;64574;48.506;-2.750;2022-12-16T01:58:56;4.50;62.70
75621;DHT22;64574;48.506;-2.750;2022-12-16T02:01:22;4.50;62.20
75621;DHT22;64574;48.506;-2.750;2022-12-16T02:03:49;4.50;62.20
75621;DHT22;64574;48.506;-2.750;2022-12-16T02:06:16;4.50;62.60
75621;DHT22;64574;48.506;-2.750;2022-12-16T02:08:41;4.50;62.90
75621;DHT22;64574;48.506;-2.750;2022-12-16T02:17:04;4.50;63.90
75621;DHT22;64574;48.506;-2.750;2022-12-16T02:25:52;4.50;65.50
75621;DHT22;64574;48.506;-2.750;2022-12-16T02:47:08;4.70;64.60
75621;DHT22;64574;48.506;-2.750;2022-12-16T02:52:00;4.70;64.70
75621;DHT22;64574;48.506;-2.750;2022-12-16T02:54:27;4.70;64.70
75621;DHT22;64574;48.506;-2.750;2022-12-16T03:00:03;4.70;63.40
75621;DHT22;64574;48.506;-2.750;2022-12-16T03:02:40;4.70;62.20
75621;DHT22;64574;48.506;-2.750;2022-12-16T03:05:13;4.70;62.00
75621;DHT22;64574;48.506;-2.750;2022-12-16T03:07:42;4.70;62.20
75621;DHT22;64574;48.506;-2.750;2022-12-16T03:10:13;4.70;62.80
75621;DHT22;64574;48.506;-2.750;2022-12-16T03:12:41;4.70;63.40
75621;DHT22;64574;48.506;-2.750;2022-12-16T03:15:08;4.70;64.20
75621;DHT22;64574;48.506;-2.750;2022-12-16T03:17:36;4.70;64.30
75621;DHT22;64574;48.506;-2.750;2022-12-16T03:20:08;4.70;64.10
75621;DHT22;64574;48.506;-2.750;2022-12-16T03:22:37;4.70;63.80
75621;DHT22;64574;48.506;-2.750;2022-12-16T03:25:05;4.70;63.60
75621;DHT22;64574;48.506;-2.750;2022-12-16T03:27:55;4.70;63.80
75621;DHT22;64574;48.506;-2.750;2022-12-16T03:30:26;4.70;63.70
75621;DHT22;64574;48.506;-2.750;2022-12-16T03:33:03;4.70;63.60
75621;DHT22;64574;48.506;-2.750;2022-12-16T03:38:06;4.70;63.20
75621;DHT22;64574;48.506;-2.750;2022-12-16T03:40:34;4.70;63.30
75621;DHT22;64574;48.506;-2.750;2022-12-16T03:43:03;4.70;63.50
75621;DHT22;64574;48.506;-2.750;2022-12-16T03:45:37;4.70;63.40
75621;DHT22;64574;48.506;-2.750;2022-12-16T03:48:06;4.70;63.00
75621;DHT22;64574;48.506;-2.750;2022-12-16T03:50:33;4.70;63.00
75621;DHT22;64574;48.506;-2.750;2022-12-16T03:53:00;4.70;62.40
75621;DHT22;64574;48.506;-2.750;2022-12-16T03:55:26;4.70;62.70
75621;DHT22;64574;48.506;-2.750;2022-12-16T03:57:52;4.70;63.50
75621;DHT22;64574;48.506;-2.750;2022-12-16T04:00:17;4.70;63.80
75621;DHT22;64574;48.506;-2.750;2022-12-16T04:02:43;4.70;64.00
75621;DHT22;64574;48.506;-2.750;2022-12-16T04:05:09;4.70;64.40
75621;DHT22;64574;48.506;-2.750;2022-12-16T04:07:35;4.70;64.20
75621;DHT22;64574;48.506;-2.750;2022-12-16T04:10:00;4.70;64.20
75621;DHT22;64574;48.506;-2.750;2022-12-16T04:12:26;4.70;63.90
75621;DHT22;64574;48.506;-2.750;2022-12-16T04:15:11;4.70;64.10
75621;DHT22;64574;48.506;-2.750;2022-12-16T04:17:54;4.70;64.20
75621;DHT22;64574;48.506;-2.750;2022-12-16T04:20:43;4.70;64.00
75621;DHT22;64574;48.506;-2.750;2022-12-16T04:23:29;4.70;63.90
75621;DHT22;64574;48.506;-2.750;2022-12-16T04:26:15;4.70;64.00
75621;DHT22;64574;48.506;-2.750;2022-12-16T04:28:41;4.80;64.80
75621;DHT22;64574;48.506;-2.750;2022-12-16T04:31:06;4.80;64.60
75621;DHT22;64574;48.506;-2.750;2022-12-16T04:33:32;4.80;64.60
75621;DHT22;64574;48.506;-2.750;2022-12-16T04:36:16;4.90;64.10
75621;DHT22;64574;48.506;-2.750;2022-12-16T04:39:00;4.80;63.30
75621;DHT22;64574;48.506;-2.750;2022-12-16T04:42:04;4.70;63.50
75621;DHT22;64574;48.506;-2.750;2022-12-16T04:44:49;4.70;63.70
75621;DHT22;64574;48.506;-2.750;2022-12-16T04:47:33;4.80;63.90
75621;DHT22;64574;48.506;-2.750;2022-12-16T04:50:17;4.80;64.10
75621;DHT22;64574;48.506;-2.750;2022-12-16T04:53:02;4.80;64.40
75621;DHT22;64574;48.506;-2.750;2022-12-16T04:55:46;4.70;64.20
75621;DHT22;64574;48.506;-2.750;2022-12-16T04:58:30;4.70;63.90
75621;DHT22;64574;48.506;-2.750;2022-12-16T05:01:14;4.70;63.80
75621;DHT22;64574;48.506;-2.750;2022-12-16T05:03:58;4.70;64.00
75621;DHT22;64574;48.506;-2.750;2022-12-16T05:06:42;4.70;63.80
75621;DHT22;64574;48.506;-2.750;2022-12-16T05:09:26;4.80;63.30
75621;DHT22;64574;48.506;-2.750;2022-12-16T05:12:10;4.70;63.30
75621;DHT22;64574;48.506;-2.750;2022-12-16T05:14:54;4.70;63.00
75621;DHT22;64574;48.506;-2.750;2022-12-16T05:17:38;4.80;63.20
75621;DHT22;64574;48.506;-2.750;2022-12-16T05:20:22;4.70;63.40
75621;DHT22;64574;48.506;-2.750;2022-12-16T05:23:06;4.70;62.40
75621;DHT22;64574;48.506;-2.750;2022-12-16T05:25:50;4.80;61.70
75621;DHT22;64574;48.506;-2.750;2022-12-16T05:28:34;4.90;61.60
75621;DHT22;64574;48.506;-2.750;2022-12-16T05:31:18;4.90;61.90
75621;DHT22;64574;48.506;-2.750;2022-12-16T05:34:02;4.90;62.70
75621;DHT22;64574;48.506;-2.750;2022-12-16T05:36:46;4.90;63.20
75621;DHT22;64574;48.506;-2.750;2022-12-16T05:39:30;4.90;63.60
75621;DHT22;64574;48.506;-2.750;2022-12-16T05:42:14;4.90;64.00
75621;DHT22;64574;48.506;-2.750;2022-12-16T05:44:58;4.90;63.90
75621;DHT22;64574;48.506;-2.750;2022-12-16T05:47:42;4.80;63.20
75621;DHT22;64574;48.506;-2.750;2022-12-16T05:50:26;4.80;62.50
75621;DHT22;64574;48.506;-2.750;2022-12-16T05:53:10;4.70;62.20
75621;DHT22;64574;48.506;-2.750;2022-12-16T05:55:54;4.70;62.20
75621;DHT22;64574;48.506;-2.750;2022-12-16T05:58:38;4.70;61.30
75621;DHT22;64574;48.506;-2.750;2022-12-16T06:01:22;4.70;61.10
75621;DHT22;64574;48.506;-2.750;2022-12-16T06:04:07;4.80;61.20
75621;DHT22;64574;48.506;-2.750;2022-12-16T06:06:50;4.80;61.50
75621;DHT22;64574;48.506;-2.750;2022-12-16T06:09:35;4.90;62.00
75621;DHT22;64574;48.506;-2.750;2022-12-16T06:12:19;4.90;62.20
75621;DHT22;64574;48.506;-2.750;2022-12-16T06:15:03;4.90;62.40
75621;DHT22;64574;48.506;-2.750;2022-12-16T06:17:48;4.90;62.60
75621;DHT22;64574;48.506;-2.750;2022-12-16T06:20:33;4.90;62.60
75621;DHT22;64574;48.506;-2.750;2022-12-16T06:23:17;4.90;62.80
75621;DHT22;64574;48.506;-2.750;2022-12-16T06:26:02;4.90;63.30
75621;DHT22;64574;48.506;-2.750;2022-12-16T06:28:46;4.90;63.30
75621;DHT22;64574;48.506;-2.750;2022-12-16T06:31:30;4.90;63.30
75621;DHT22;64574;48.506;-2.750;2022-12-16T06:34:15;4.80;63.40
75621;DHT22;64574;48.506;-2.750;2022-12-16T06:36:59;4.70;63.50
75621;DHT22;64574;48.506;-2.750;2022-12-16T06:39:43;4.70;63.40
75621;DHT22;64574;48.506;-2.750;2022-12-16T06:42:27;4.80;63.20
75621;DHT22;64574;48.506;-2.750;2022-12-16T06:45:11;4.80;63.30
75621;DHT22;64574;48.506;-2.750;2022-12-16T06:47:55;4.80;63.30
75621;DHT22;64574;48.506;-2.750;2022-12-16T06:50:39;4.80;63.40
75621;DHT22;64574;48.506;-2.750;2022-12-16T06:53:23;4.70;63.60
75621;DHT22;64574;48.506;-2.750;2022-12-16T06:56:07;4.70;63.70
75621;DHT22;64574;48.506;-2.750;2022-12-16T06:58:51;4.70;63.90
75621;DHT22;64574;48.506;-2.750;2022-12-16T07:01:35;4.70;64.00
75621;DHT22;64574;48.506;-2.750;2022-12-16T07:04:19;4.70;64.00
75621;DHT22;64574;48.506;-2.750;2022-12-16T07:07:05;4.70;64.00
75621;DHT22;64574;48.506;-2.750;2022-12-16T07:09:49;4.70;64.10
75621;DHT22;64574;48.506;-2.750;2022-12-16T07:12:33;4.70;64.00
75621;DHT22;64574;48.506;-2.750;2022-12-16T07:15:17;4.60;64.20
75621;DHT22;64574;48.506;-2.750;2022-12-16T07:18:01;4.50;64.10
75621;DHT22;64574;48.506;-2.750;2022-12-16T07:20:45;4.50;64.20
75621;DHT22;64574;48.506;-2.750;2022-12-16T07:23:29;4.50;64.40
75621;DHT22;64574;48.506;-2.750;2022-12-16T07:26:13;4.40;64.60
75621;DHT22;64574;48.506;-2.750;2022-12-16T07:28:57;4.40;64.70
75621;DHT22;64574;48.506;-2.750;2022-12-16T07:31:41;4.40;64.70
75621;DHT22;64574;48.506;-2.750;2022-12-16T07:34:25;4.40;64.80
75621;DHT22;64574;48.506;-2.750;2022-12-16T07:37:10;4.50;64.70
75621;DHT22;64574;48.506;-2.750;2022-12-16T07:39:54;4.50;64.60
75621;DHT22;64574;48.506;-2.750;2022-12-16T07:42:42;4.50;64.70
75621;DHT22;64574;48.506;-2.750;2022-12-16T07:45:28;4.50;64.90
75621;DHT22;64574;48.506;-2.750;2022-12-16T07:48:12;4.60;64.90
75621;DHT22;64574;48.506;-2.750;2022-12-16T07:50:56;4.60;64.80
75621;DHT22;64574;48.506;-2.750;2022-12-16T07:53:40;4.60;64.70
75621;DHT22;64574;48.506;-2.750;2022-12-16T07:56:24;4.50;64.80
75621;DHT22;64574;48.506;-2.750;2022-12-16T07:59:09;4.50;65.10
75621;DHT22;64574;48.506;-2.750;2022-12-16T08:01:53;4.50;65.20
75621;DHT22;64574;48.506;-2.750;2022-12-16T08:04:37;4.50;65.30
75621;DHT22;64574;48.506;-2.750;2022-12-16T08:07:21;4.50;65.10
75621;DHT22;64574;48.506;-2.750;2022-12-16T08:10:05;4.40;65.20
75621;DHT22;64574;48.506;-2.750;2022-12-16T08:12:49;4.40;65.40
75621;DHT22;64574;48.506;-2.750;2022-12-16T08:15:33;4.40;65.50
75621;DHT22;64574;48.506;-2.750;2022-12-16T08:18:17;4.40;65.60
75621;DHT22;64574;48.506;-2.750;2022-12-16T08:21:01;4.30;65.70
75621;DHT22;64574;48.506;-2.750;2022-12-16T08:23:45;4.30;65.90
75621;DHT22;64574;48.506;-2.750;2022-12-16T08:26:29;4.30;66.10
75621;DHT22;64574;48.506;-2.750;2022-12-16T08:29:13;4.30;66.30
75621;DHT22;64574;48.506;-2.750;2022-12-16T08:31:58;4.30;66.80
75621;DHT22;64574;48.506;-2.750;2022-12-16T08:34:42;4.30;66.90
75621;DHT22;64574;48.506;-2.750;2022-12-16T08:37:26;4.20;67.10
75621;DHT22;64574;48.506;-2.750;2022-12-16T08:40:10;4.20;67.60
75621;DHT22;64574;48.506;-2.750;2022-12-16T08:42:57;4.20;68.00
75621;DHT22;64574;48.506;-2.750;2022-12-16T08:45:42;4.10;68.30
75621;DHT22;64574;48.506;-2.750;2022-12-16T08:48:26;4.10;68.80
75621;DHT22;64574;48.506;-2.750;2022-12-16T08:51:11;4.10;69.10
75621;DHT22;64574;48.506;-2.750;2022-12-16T08:53:55;4.10;69.00
75621;DHT22;64574;48.506;-2.750;2022-12-16T08:56:39;4.10;69.10
75621;DHT22;64574;48.506;-2.750;2022-12-16T08:59:23;4.10;69.30
75621;DHT22;64574;48.506;-2.750;2022-12-16T09:02:09;4.10;69.30
75621;DHT22;64574;48.506;-2.750;2022-12-16T09:04:53;4.10;69.40
75621;DHT22;64574;48.506;-2.750;2022-12-16T09:07:38;4.10;69.30
75621;DHT22;64574;48.506;-2.750;2022-12-16T09:10:22;4.10;69.40
75621;DHT22;64574;48.506;-2.750;2022-12-16T09:13:11;4.20;69.70
75621;DHT22;64574;48.506;-2.750;2022-12-16T09:15:57;4.20;69.70
75621;DHT22;64574;48.506;-2.750;2022-12-16T09:18:41;4.20;70.00
75621;DHT22;64574;48.506;-2.750;2022-12-16T09:21:25;4.20;70.00
75621;DHT22;64574;48.506;-2.750;2022-12-16T09:24:10;4.20;70.20
75621;DHT22;64574;48.506;-2.750;2022-12-16T09:26:54;4.20;70.30
75621;DHT22;64574;48.506;-2.750;2022-12-16T09:29:38;4.20;70.40
75621;DHT22;64574;48.506;-2.750;2022-12-16T09:32:23;4.30;70.40
75621;DHT22;64574;48.506;-2.750;2022-12-16T09:35:08;4.30;70.30
75621;DHT22;64574;48.506;-2.750;2022-12-16T09:37:52;4.30;70.40
75621;DHT22;64574;48.506;-2.750;2022-12-16T09:40:38;4.30;70.30
75621;DHT22;64574;48.506;-2.750;2022-12-16T09:49:48;4.40;70.10
75621;DHT22;64574;48.506;-2.750;2022-12-16T09:52:47;4.40;69.90
75621;DHT22;64574;48.506;-2.750;2022-12-16T09:55:37;4.40;69.70
75621;DHT22;64574;48.506;-2.750;2022-12-16T09:58:24;4.40;69.80
75621;DHT22;64574;48.506;-2.750;2022-12-16T10:01:11;4.40;69.50
75621;DHT22;64574;48.506;-2.750;2022-12-16T10:03:56;4.40;69.40
75621;DHT22;64574;48.506;-2.750;2022-12-16T10:06:48;4.50;69.00
75621;DHT22;64574;48.506;-2.750;2022-12-16T10:16:28;4.60;68.10
75621;DHT22;64574;48.506;-2.750;2022-12-16T10:28:00;4.70;67.30
75621;DHT22;64574;48.506;-2.750;2022-12-16T10:30:49;4.70;67.30
75621;DHT22;64574;48.506;-2.750;2022-12-16T10:33:33;4.70;66.70
75621;DHT22;64574;48.506;-2.750;2022-12-16T10:36:20;4.80;66.60
75621;DHT22;64574;48.506;-2.750;2022-12-16T10:39:21;4.80;66.30
75621;DHT22;64574;48.506;-2.750;2022-12-16T10:42:21;4.80;66.20
75621;DHT22;64574;48.506;-2.750;2022-12-16T10:45:20;4.80;66.00
75621;DHT22;64574;48.506;-2.750;2022-12-16T10:48:09;4.90;65.80
75621;DHT22;64574;48.506;-2.750;2022-12-16T10:50:53;4.90;65.40
75621;DHT22;64574;48.506;-2.750;2022-12-16T10:53:37;4.90;64.80
75621;DHT22;64574;48.506;-2.750;2022-12-16T10:56:52;5.00;64.80
75621;DHT22;64574;48.506;-2.750;2022-12-16T10:59:39;5.00;64.70
75621;DHT22;64574;48.506;-2.750;2022-12-16T11:02:25;5.10;64.80
75621;DHT22;64574;48.506;-2.750;2022-12-16T11:05:39;5.00;64.90
75621;DHT22;64574;48.506;-2.750;2022-12-16T11:08:27;5.10;65.10
75621;DHT22;64574;48.506;-2.750;2022-12-16T11:11:21;5.20;65.10
75621;DHT22;64574;48.506;-2.750;2022-12-16T11:14:27;5.20;65.40
75621;DHT22;64574;48.506;-2.750;2022-12-16T11:17:22;5.10;65.80
75621;DHT22;64574;48.506;-2.750;2022-12-16T11:23:20;5.20;66.30
75621;DHT22;64574;48.506;-2.750;2022-12-16T11:26:07;5.30;66.50
75621;DHT22;64574;48.506;-2.750;2022-12-16T11:29:14;5.30;66.40
75621;DHT22;64574;48.506;-2.750;2022-12-16T11:32:11;5.30;66.30
75621;DHT22;64574;48.506;-2.750;2022-12-16T11:35:02;5.30;66.30
75621;DHT22;64574;48.506;-2.750;2022-12-16T11:37:48;5.30;66.40
75621;DHT22;64574;48.506;-2.750;2022-12-16T11:40:33;5.40;66.10
75621;DHT22;64574;48.506;-2.750;2022-12-16T11:43:19;5.40;66.10
75621;DHT22;64574;48.506;-2.750;2022-12-16T11:46:09;5.40;66.20
75621;DHT22;64574;48.506;-2.750;2022-12-16T11:49:06;5.40;66.60
75621;DHT22;64574;48.506;-2.750;2022-12-16T11:51:56;5.50;66.60
75621;DHT22;64574;48.506;-2.750;2022-12-16T11:58:22;5.50;66.50
75621;DHT22;64574;48.506;-2.750;2022-12-16T12:01:13;5.50;66.50
75621;DHT22;64574;48.506;-2.750;2022-12-16T12:03:59;5.50;66.00
75621;DHT22;64574;48.506;-2.750;2022-12-16T12:07:09;5.50;66.00
75621;DHT22;64574;48.506;-2.750;2022-12-16T12:10:37;5.50;66.30
75621;DHT22;64574;48.506;-2.750;2022-12-16T12:19:51;5.50;66.40
75621;DHT22;64574;48.506;-2.750;2022-12-16T12:22:39;5.60;65.90
75621;DHT22;64574;48.506;-2.750;2022-12-16T12:25:27;5.50;65.90
75621;DHT22;64574;48.506;-2.750;2022-12-16T12:31:07;5.60;64.90
75621;DHT22;64574;48.506;-2.750;2022-12-16T12:37:08;5.50;65.20
75621;DHT22;64574;48.506;-2.750;2022-12-16T12:40:15;5.50;65.10
75621;DHT22;64574;48.506;-2.750;2022-12-16T12:43:05;5.50;65.30
75621;DHT22;64574;48.506;-2.750;2022-12-16T12:54:39;5.60;65.00
75621;DHT22;64574;48.506;-2.750;2022-12-16T12:57:25;5.60;64.70
75621;DHT22;64574;48.506;-2.750;2022-12-16T13:00:21;5.60;64.60
75621;DHT22;64574;48.506;-2.750;2022-12-16T13:03:17;5.70;64.20
75621;DHT22;64574;48.506;-2.750;2022-12-16T13:06:06;5.70;64.40
75621;DHT22;64574;48.506;-2.750;2022-12-16T13:11:35;5.80;64.10
75621;DHT22;64574;48.506;-2.750;2022-12-16T13:20:00;5.90;64.10
75621;DHT22;64574;48.506;-2.750;2022-12-16T13:22:45;5.90;63.40
75621;DHT22;64574;48.506;-2.750;2022-12-16T13:25:41;5.80;63.50
75621;DHT22;64574;48.506;-2.750;2022-12-16T13:28:32;5.80;63.00
75621;DHT22;64574;48.506;-2.750;2022-12-16T13:31:17;5.90;62.30
75621;DHT22;64574;48.506;-2.750;2022-12-16T13:34:22;5.90;62.40
75621;DHT22;64574;48.506;-2.750;2022-12-16T13:37:23;5.80;62.60
75621;DHT22;64574;48.506;-2.750;2022-12-16T13:40:20;5.80;62.80
75621;DHT22;64574;48.506;-2.750;2022-12-16T13:43:57;5.80;62.70
75621;DHT22;64574;48.506;-2.750;2022-12-16T13:52:43;5.90;62.90
75621;DHT22;64574;48.506;-2.750;2022-12-16T13:55:40;5.80;63.20
75621;DHT22;64574;48.506;-2.750;2022-12-16T13:58:38;5.80;63.50
75621;DHT22;64574;48.506;-2.750;2022-12-16T14:01:43;5.80;63.90
75621;DHT22;64574;48.506;-2.750;2022-12-16T14:04:44;5.80;64.20
75621;DHT22;64574;48.506;-2.750;2022-12-16T14:07:47;5.70;64.50
75621;DHT22;64574;48.506;-2.750;2022-12-16T14:10:38;5.70;64.40
75621;DHT22;64574;48.506;-2.750;2022-12-16T14:25:26;5.60;63.20
75621;DHT22;64574;48.506;-2.750;2022-12-16T14:34:02;5.90;62.70
75621;DHT22;64574;48.506;-2.750;2022-12-16T14:36:47;5.90;62.60
75621;DHT22;64574;48.506;-2.750;2022-12-16T14:39:37;5.90;62.70
75621;DHT22;64574;48.506;-2.750;2022-12-16T14:42:28;5.90;62.50
75621;DHT22;64574;48.506;-2.750;2022-12-16T14:45:29;5.90;62.40
75621;DHT22;64574;48.506;-2.750;2022-12-16T14:48:21;5.90;61.80
75621;DHT22;64574;48.506;-2.750;2022-12-16T14:54:39;6.00;63.30
75621;DHT22;64574;48.506;-2.750;2022-12-16T14:57:30;6.00;63.60
75621;DHT22;64574;48.506;-2.750;2022-12-16T15:00:18;6.00;64.00
75621;DHT22;64574;48.506;-2.750;2022-12-16T15:03:29;5.90;64.00
75621;DHT22;64574;48.506;-2.750;2022-12-16T15:09:24;5.80;62.50
75621;DHT22;64574;48.506;-2.750;2022-12-16T15:12:11;5.70;62.80
75621;DHT22;64574;48.506;-2.750;2022-12-16T15:14:56;5.70;61.70
75621;DHT22;64574;48.506;-2.750;2022-12-16T15:17:49;5.80;61.00
75621;DHT22;64574;48.506;-2.750;2022-12-16T15:20:36;5.70;60.90
75621;DHT22;64574;48.506;-2.750;2022-12-16T15:26:06;5.70;60.60
75621;DHT22;64574;48.506;-2.750;2022-12-16T15:28:51;5.70;60.40
75621;DHT22;64574;48.506;-2.750;2022-12-16T15:31:38;5.60;60.50
75621;DHT22;64574;48.506;-2.750;2022-12-16T15:34:29;5.60;60.50
75621;DHT22;64574;48.506;-2.750;2022-12-16T15:37:28;5.60;60.50
75621;DHT22;64574;48.506;-2.750;2022-12-16T15:40:24;5.50;60.70
75621;DHT22;64574;48.506;-2.750;2022-12-16T15:43:45;5.50;60.80
75621;DHT22;64574;48.506;-2.750;2022-12-16T15:46:30;5.40;61.20
75621;DHT22;64574;48.506;-2.750;2022-12-16T15:49:32;5.30;61.50
75621;DHT22;64574;48.506;-2.750;2022-12-16T15:52:38;5.30;61.70
75621;DHT22;64574;48.506;-2.750;2022-12-16T15:58:33;5.30;62.20
75621;DHT22;64574;48.506;-2.750;2022-12-16T16:01:23;5.30;62.30
75621;DHT22;64574;48.506;-2.750;2022-12-16T16:04:28;5.20;62.70
75621;DHT22;64574;48.506;-2.750;2022-12-16T16:07:19;5.10;63.20
75621;DHT22;64574;48.506;-2.750;2022-12-16T16:10:23;5.10;63.50
75621;DHT22;64574;48.506;-2.750;2022-12-16T16:13:08;5.00;63.80
75621;DHT22;64574;48.506;-2.750;2022-12-16T16:15:52;5.00;63.90
75621;DHT22;64574;48.506;-2.750;2022-12-16T16:18:37;5.00;64.10
75621;DHT22;64574;48.506;-2.750;2022-12-16T16:21:21;5.00;64.20
75621;DHT22;64574;48.506;-2.750;2022-12-16T16:24:06;5.00;64.50
75621;DHT22;64574;48.506;-2.750;2022-12-16T16:26:52;4.90;64.80
75621;DHT22;64574;48.506;-2.750;2022-12-16T16:29:37;4.80;65.10
75621;DHT22;64574;48.506;-2.750;2022-12-16T16:32:21;4.70;65.40
75621;DHT22;64574;48.506;-2.750;2022-12-16T16:35:05;4.70;65.70
75621;DHT22;64574;48.506;-2.750;2022-12-16T16:37:49;4.70;65.70
75621;DHT22;64574;48.506;-2.750;2022-12-16T16:40:36;4.70;66.20
75621;DHT22;64574;48.506;-2.750;2022-12-16T16:43:22;4.50;66.10
75621;DHT22;64574;48.506;-2.750;2022-12-16T16:49:09;4.50;66.80
75621;DHT22;64574;48.506;-2.750;2022-12-16T16:51:53;4.40;66.70
75621;DHT22;64574;48.506;-2.750;2022-12-16T16:54:37;4.40;66.70
75621;DHT22;64574;48.506;-2.750;2022-12-16T16:57:21;4.40;66.80
75621;DHT22;64574;48.506;-2.750;2022-12-16T17:00:06;4.40;67.00
75621;DHT22;64574;48.506;-2.750;2022-12-16T17:02:51;4.40;67.00
75621;DHT22;64574;48.506;-2.750;2022-12-16T17:05:35;4.20;67.00
75621;DHT22;64574;48.506;-2.750;2022-12-16T17:08:19;4.10;67.30
75621;DHT22;64574;48.506;-2.750;2022-12-16T17:11:10;4.10;67.80
75621;DHT22;64574;48.506;-2.750;2022-12-16T17:13:58;4.10;67.50
75621;DHT22;64574;48.506;-2.750;2022-12-16T17:16:43;4.10;68.00
75621;DHT22;64574;48.506;-2.750;2022-12-16T17:19:27;4.10;68.10
75621;DHT22;64574;48.506;-2.750;2022-12-16T17:22:11;4.10;68.10
75621;DHT22;64574;48.506;-2.750;2022-12-16T17:24:55;4.00;68.20
75621;DHT22;64574;48.506;-2.750;2022-12-16T17:27:42;3.90;68.00
75621;DHT22;64574;48.506;-2.750;2022-12-16T17:30:27;3.90;68.50
75621;DHT22;64574;48.506;-2.750;2022-12-16T17:33:24;4.00;68.50
75621;DHT22;64574;48.506;-2.750;2022-12-16T17:36:11;4.00;68.00
75621;DHT22;64574;48.506;-2.750;2022-12-16T17:38:55;3.90;68.20
75621;DHT22;64574;48.506;-2.750;2022-12-16T17:41:39;3.90;68.30
75621;DHT22;64574;48.506;-2.750;2022-12-16T17:44:23;3.90;68.50
75621;DHT22;64574;48.506;-2.750;2022-12-16T17:47:08;3.90;68.30
75621;DHT22;64574;48.506;-2.750;2022-12-16T17:49:52;3.90;68.40
75621;DHT22;64574;48.506;-2.750;2022-12-16T17:52:36;3.80;68.30
75621;DHT22;64574;48.506;-2.750;2022-12-16T17:55:20;3.80;68.20
75621;DHT22;64574;48.506;-2.750;2022-12-16T17:58:05;3.60;68.10
75621;DHT22;64574;48.506;-2.750;2022-12-16T18:00:49;3.50;68.50
75621;DHT22;64574;48.506;-2.750;2022-12-16T18:03:33;3.50;68.80
75621;DHT22;64574;48.506;-2.750;2022-12-16T18:06:17;3.50;68.90
75621;DHT22;64574;48.506;-2.750;2022-12-16T18:09:01;3.40;69.10
75621;DHT22;64574;48.506;-2.750;2022-12-16T18:11:45;3.40;69.10
75621;DHT22;64574;48.506;-2.750;2022-12-16T18:14:29;3.30;69.10
75621;DHT22;64574;48.506;-2.750;2022-12-16T18:17:13;3.30;69.10
75621;DHT22;64574;48.506;-2.750;2022-12-16T18:19:57;3.30;69.20
75621;DHT22;64574;48.506;-2.750;2022-12-16T18:22:41;3.20;69.30
75621;DHT22;64574;48.506;-2.750;2022-12-16T18:25:25;3.20;69.30
75621;DHT22;64574;48.506;-2.750;2022-12-16T18:28:09;3.30;69.00
75621;DHT22;64574;48.506;-2.750;2022-12-16T18:30:53;3.20;68.90
75621;DHT22;64574;48.506;-2.750;2022-12-16T18:33:37;3.10;69.20
75621;DHT22;64574;48.506;-2.750;2022-12-16T18:36:21;3.30;68.70
75621;DHT22;64574;48.506;-2.750;2022-12-16T18:39:05;3.20;68.70
75621;DHT22;64574;48.506;-2.750;2022-12-16T18:41:49;3.00;68.90
75621;DHT22;64574;48.506;-2.750;2022-12-16T18:44:33;2.90;69.40
75621;DHT22;64574;48.506;-2.750;2022-12-16T18:47:17;2.90;69.40
75621;DHT22;64574;48.506;-2.750;2022-12-16T18:50:02;2.80;69.60
75621;DHT22;64574;48.506;-2.750;2022-12-16T18:52:46;2.80;69.60
75621;DHT22;64574;48.506;-2.750;2022-12-16T18:55:30;2.90;69.60
75621;DHT22;64574;48.506;-2.750;2022-12-16T18:58:14;2.90;69.30
75621;DHT22;64574;48.506;-2.750;2022-12-16T19:01:09;2.90;69.30
75621;DHT22;64574;48.506;-2.750;2022-12-16T19:03:54;2.90;69.30
75621;DHT22;64574;48.506;-2.750;2022-12-16T19:06:39;2.80;69.40
75621;DHT22;64574;48.506;-2.750;2022-12-16T19:09:23;2.80;69.50
75621;DHT22;64574;48.506;-2.750;2022-12-16T19:12:07;2.80;69.20
75621;DHT22;64574;48.506;-2.750;2022-12-16T19:14:52;2.70;69.70
75621;DHT22;64574;48.506;-2.750;2022-12-16T19:17:36;2.60;69.70
75621;DHT22;64574;48.506;-2.750;2022-12-16T19:20:20;2.60;69.80
75621;DHT22;64574;48.506;-2.750;2022-12-16T19:23:04;2.70;69.60
75621;DHT22;64574;48.506;-2.750;2022-12-16T19:25:58;2.80;69.20
75621;DHT22;64574;48.506;-2.750;2022-12-16T19:28:43;2.80;68.70
75621;DHT22;64574;48.506;-2.750;2022-12-16T19:31:28;2.70;68.90